Brunswick Golden Isles Airport
KBQK : now visible

Airfield :











YOU CAN JOIN US ON...

 
LOGIN :

Register | Disclaimer

   EN    FR    IT 

 









Legend :    VFR   Marginal VFR   IFR   Intensive IFR   Very Intensive IFR
Visi :
Ceiling :
>= 8 km
>= 3000ft
5 to 8 km
1000 to 3000 ft
1500m to 5 km
500 to 1000 ft
800 to 1500m
200 to 500 ft
< 800m
< 200 ft
Symbols :   Thunderstorms  Fog  Heavy snow  Heavy precipitations  Wind > 20 kt






- Airport Elevation : 26 ft
- IATA code : BQK


KBQK - Brunswick Golden Isles

CURRENT METAR :
  • 072055Z AUTO 16008KT 10SM SCT060 SCT065 BKN095 27/18 A2999 RMK AO2 T02750183

EXPIRED METARs :
  • 072035Z AUTO 25006KT 10SM SCT060 SCT065 SCT095 28/16 A2999 RMK AO2 T02850161
  • 072015Z AUTO 23005KT 10SM BKN050 BKN070 BKN090 28/18 A2999 RMK AO2 T02830181
  • 071955Z AUTO 18004KT 10SM SCT050 SCT080 29/16 A2999 RMK AO2 T02860163
  • 071935Z AUTO 26009KT 10SM SCT050 SCT080 29/16 A3000 RMK AO2 T02870161
  • 071915Z AUTO 23008KT 10SM SCT050 SCT070 29/17 A3001 RMK AO2 T02880166
  • 071855Z AUTO 23007KT 10SM SCT055 SCT070 29/16 A3003 RMK AO2 T02870164
  • 071835Z AUTO 24007KT 10SM CLR 29/17 A3004 RMK AO2 T02880170
  • 071815Z AUTO 20005KT 10SM CLR 28/17 A3004 RMK AO2 T02840172

TAF N/A



MET'MAP, your aeronautical weather chart ! - Copyright ORBIFLY December 2007 - Disclaimer

ORBIFLY MET'MAP TEAM :

Programming & Development : Alexandra Zaïnal
Concept & original design : Baudouin d'Aumeries
Assistance for programming : Marc-Olivier Méhu
Technical & hardware support : Manuel Goepfert

Contact : metmap@orbifly.com




SOURCES & CREDITS :

   NOAA       Earth
Advisory